Chobot, Thomas
United StatesManBorn 19552006 – 2025Runner id 77986
Events
35
2006 – 2025
Best pace
10.067
km/h · 2007
Best finish
11th
of 152 · 2009
Distance raced
3,233
km · splits not double-counted
Pace over time
km/h · higher is faster
Pace over time: 35 races from 2006 to 2025, ranging from 3.61 to 11.40 kilometres per hour, where higher is faster. A second, age-graded series is drawn above it; the gap between the two is the age credit.
- Actual pace
- Age-graded pace
Results
| Date | Event | Distance | Result | Pace km/h | Placing |
|---|---|---|---|---|---|
| 2006-10-07 | 50km | 5:41:24 h | 8.787 | 37/80 | |
| 2007-10-07 | 50km | 4:58:00 h | 10.067 | 16/89 | |
| 2009-03-31 | 50km | 5:36:47 h | 8.908 | 82/385 | |
| 2009-07-18 | Lone Ranger 24 hr Ultra-MarathonUnited States | 24h | 163.303 km | 6.804 | 11/152 |
| 2009-10-04 | Blues Cruise 50K Ultra TrailUnited States | 50km | 5:22:01 h | 9.316 | 40/138 |
| 2010-05-15 | 100mi | 30:26:07 h | 5.288 | 61/114 | |
| 2010-07-17 | 24h | 122.477 km | 5.103 | 40/158 | |
| 2010-09-05 | 12h | 99.779 km | 8.315 | 10/99 | |
| 2011-07-30 | 125km | 21:07:40 h | 5.916 | 50/130 | |
| 2011-09-04 | 12h | 88.513 km | 7.376 | 12/136 | |
| 2012-09-02 | 12h | 64.373 km | 5.364 | 75/162 | |
| 2012-10-07 | Blues Cruise 50K Ultra TrailUnited States | 50km | 5:27:44 h | 9.154 | 89/231 |
| 2013-09-01 | 12h | 64.373 km | 5.364 | 68/115 | |
| 2014-03-22 | New Jersey Ultra Festival 50 Mile RaceUnited States | 50mi | 10:44:04 h | 7.496 | 11/33 |
| 2014-05-18 | 50mi | 9:41:15 h | 8.306 | 44/76 | |
| 2014-08-02 | 125km | 20:11:19 h | 6.192 | 35/115 | |
| 2014-08-31 | 12h | 80.467 km | 6.706 | 24/146 | |
| 2014-10-05 | Blues Cruise 50K Ultra TrailUnited States | 50km | 5:17:03 h | 9.462 | 59/259 |
| 2015-03-29 | 40mi | 8:06:49 h | 7.934 | 26/47 | |
| 2015-05-16 | 100mi | 32:41:05 h | 4.924 | 65/120 | |
| 2015-08-01 | 125km | 22:42:28 h | 5.505 | 98/120 | |
| 2015-08-15 | 100mi | 34:56:20 h | 4.606 | 50/57 | |
| 2015-09-06 | Labor Pain 12 Hour Endurance Trail RunUnited States | 12h | 80.467 km | 6.706 | 18/170 |
| 2016-03-06 | 40mi | 8:27:35 h | 7.609 | 66/99 | |
| 2016-04-23 | 50km | 6:57:04 h | 7.193 | 122/258 | |
| 2016-05-21 | 100km | 18:44:18 h | 5.337 | 83/91 | |
| 2016-09-09 | 202mi | 3d 18:07:36 h | 3.607 | 55/80 | |
| 2017-03-04 | 40mi | 8:55:52 h | 7.208 | 64/83 | |
| 2017-04-01 | 50mi | 11:09:11 h | 7.215 | 21/42 | |
| 2017-09-03 | 12h | 72.420 km | 6.035 | 73/259 | |
| 2018-03-03 | 40mi | 9:12:05 h | 6.996 | 57/72 | |
| 2018-03-31 | 50mi | 11:33:56 h | 6.957 | 49/69 | |
| 2018-09-02 | 12h | 64.373 km | 5.364 | 94/275 | |
| 2019-09-01 | 12h | 64.373 km | 5.364 | 125/302 | |
| 2025-08-31 | 12h | 56.327 km | 4.694 | 108/174 |